Mount Cory, Ohio
Current Conditions -  °F | °C
As of 5:53 PM on Friday 31 Oct 2014 (Local Time) from KFDY Reporting Station
Light Rain Light Rain  
Wind Chill: 32°   Ceiling: 1200
Heat Index: 41°   Visibility: 10mi
Dew Point: 37°   Wind: 20mph
Humidity: 86%   Direction: 350°N
Pressure: 29.9"   Gusts: 24mph
Location:  40.94°N, 83.82°W
Report Text: KFDY 312153Z AUTO 35017G21KT 10SM -RA BKN012 BKN016 OVC033 05/03 A2990 RMK AO2 SLP126 P0002 T00500028
Loading
Personal Weather Stations






























Interactive Weather Map
Tropical Storm Tracking
New forecast layout! Learn more

10-Day Weather Forecast

Advertisements
Track Severe Weather on mobile